Time;durP1;ratioP1;P1;durP2;ratioP2;P2;SDS_P1;SDS_P2;PMS_P1;PMS_P2;Temp;Humidity;BMP_temperature;BMP_pressure;BME280_temperature;BME280_humidity;BME280_pressure;Samples;Min_cycle;Max_cycle;Signal;HPM_P1;HPM_P2
2023/08/17 00:00:13;;;;;;;40.28;35.95;;;512.30;2380.80;;;;;;4992062;28;20022;-64
2023/08/17 00:02:40;;;;;;;43.55;38.28;;;512.40;2380.80;;;;;;4992178;28;20053;-63
2023/08/17 00:05:07;;;;;;;45.42;39.22;;;512.30;2380.80;;;;;;4992350;28;20025;-62
2023/08/17 00:07:33;;;;;;;45.40;37.70;;;512.20;2380.80;;;;;;4992458;28;20034;-62
2023/08/17 00:09:59;;;;;;;43.05;38.38;;;512.10;2380.80;;;;;;4986292;28;20117;-62
2023/08/17 00:12:25;;;;;;;46.70;41.55;;;512.10;2252.80;;;;;;4991900;28;20462;-62
2023/08/17 00:14:52;;;;;;;47.17;41.90;;;512.00;2380.80;;;;;;4990918;28;20038;-64
2023/08/17 00:17:17;;;;;;;48.45;41.42;;;487.30;2380.80;;;;;;4991907;28;20069;-61
2023/08/17 00:19:43;;;;;;;47.40;41.42;;;487.30;2380.80;;;;;;4992019;28;20027;-61
2023/08/17 00:22:09;;;;;;;46.15;40.50;;;512.00;2380.80;;;;;;4991939;28;20081;-63
2023/08/17 00:24:35;;;;;;;51.75;41.35;;;512.00;2380.80;;;;;;4991703;28;20041;-63
2023/08/17 00:27:00;;;;;;;52.15;44.05;;;487.30;2380.80;;;;;;4991691;28;20076;-62
2023/08/17 00:29:26;;;;;;;51.30;41.67;;;487.20;2380.80;;;;;;4991606;28;20402;-61
2023/08/17 00:31:52;;;;;;;48.67;41.50;;;487.20;2380.80;;;;;;4991406;28;20562;-61
2023/08/17 00:34:18;;;;;;;51.83;43.95;;;487.10;2380.80;;;;;;4991948;28;20076;-61
2023/08/17 00:36:44;;;;;;;49.40;41.47;;;487.10;2380.80;;;;;;4991774;28;20038;-62
2023/08/17 00:39:10;;;;;;;51.83;43.38;;;487.10;2380.80;;;;;;4978455;28;20424;-63
2023/08/17 00:41:36;;;;;;;49.83;42.35;;;487.10;2380.80;;;;;;4991657;28;20034;-62
2023/08/17 00:44:01;;;;;;;54.70;43.28;;;487.00;2380.80;;;;;;4990992;28;20491;-61
2023/08/17 00:46:27;;;;;;;54.03;45.10;;;487.00;2380.80;;;;;;4991442;28;20030;-60
2023/08/17 00:48:58;;;;;;;50.15;43.33;;;486.90;2380.80;;;;;;4991113;28;20034;-62
2023/08/17 00:51:24;;;;;;;47.95;40.70;;;486.90;2380.80;;;;;;4991501;28;20023;-60
2023/08/17 00:53:56;;;;;;;48.88;42.63;;;487.00;2380.80;;;;;;4991218;28;20033;-61
2023/08/17 00:56:21;;;;;;;49.42;43.78;;;487.10;2227.20;;;;;;4991484;28;20034;-62
2023/08/17 00:58:49;;;;;;;51.45;43.63;;;487.10;2380.80;;;;;;4991676;28;20365;-62
2023/08/17 01:01:14;;;;;;;48.38;42.30;;;487.10;2380.80;;;;;;4991084;28;20057;-62
2023/08/17 01:03:41;;;;;;;50.00;41.80;;;487.10;2380.80;;;;;;4991337;28;20096;-62
2023/08/17 01:06:07;;;;;;;52.67;44.55;;;487.10;2380.80;;;;;;4991171;28;20041;-62
2023/08/17 01:08:33;;;;;;;50.63;41.83;;;487.10;2380.80;;;;;;4991116;28;20019;-62
2023/08/17 01:11:05;;;;;;;49.63;42.00;;;487.10;2380.80;;;;;;4991086;28;20026;-62
2023/08/17 01:13:49;;;;;;;49.90;42.67;;;487.10;2380.80;;;;;;4990995;28;20050;-63
2023/08/17 01:16:40;;;;;;;48.45;41.03;;;487.10;2380.80;;;;;;4978588;28;20073;-62
2023/08/17 01:19:09;;;;;;;47.88;41.30;;;486.90;2380.80;;;;;;4990403;28;20108;-62
2023/08/17 01:21:48;;;;;;;52.40;42.85;;;486.90;1996.80;;;;;;4991093;28;20033;-62
2023/08/17 01:24:14;;;;;;;49.00;40.60;;;486.90;1996.80;;;;;;4990338;28;20476;-63
2023/08/17 01:26:40;;;;;;;51.40;42.80;;;486.80;2304.00;;;;;;4991001;28;20026;-64
2023/08/17 01:29:07;;;;;;;52.83;43.28;;;486.80;2329.60;;;;;;4991066;28;20029;-63
2023/08/17 01:31:42;;;;;;;50.60;42.53;;;486.80;2227.20;;;;;;4990625;28;20022;-63
2023/08/17 01:34:17;;;;;;;56.67;46.25;;;486.70;2380.80;;;;;;4978782;28;20469;-61
2023/08/17 01:36:59;;;;;;;51.75;43.22;;;486.60;2380.80;;;;;;4990436;28;20524;-63
2023/08/17 01:39:34;;;;;;;55.10;45.33;;;486.60;2380.80;;;;;;4990030;28;20034;-62
2023/08/17 01:42:01;;;;;;;51.05;42.47;;;486.50;2380.80;;;;;;4990620;28;20022;-62
2023/08/17 01:44:27;;;;;;;53.30;43.10;;;486.50;2380.80;;;;;;4990602;28;20048;-62
2023/08/17 01:46:53;;;;;;;60.65;46.83;;;486.50;2380.80;;;;;;4989985;28;20101;-62
2023/08/17 01:49:19;;;;;;;53.42;43.88;;;486.60;2380.80;;;;;;4990430;28;20113;-62
2023/08/17 01:51:44;;;;;;;56.50;46.40;;;486.50;2380.80;;;;;;4990225;28;20026;-62
2023/08/17 01:54:10;;;;;;;59.08;46.97;;;486.60;2380.80;;;;;;4990388;28;20037;-62
2023/08/17 01:56:36;;;;;;;52.85;43.35;;;486.50;2380.80;;;;;;4990269;28;20436;-64
2023/08/17 01:59:01;;;;;;;51.78;42.60;;;486.50;2380.80;;;;;;4990093;28;20063;-61
2023/08/17 02:01:28;;;;;;;53.58;43.92;;;486.50;2380.80;;;;;;4990224;28;20022;-61
2023/08/17 02:03:53;;;;;;;54.97;41.92;;;486.50;2380.80;;;;;;4990149;28;20538;-61
2023/08/17 02:06:19;;;;;;;52.55;44.33;;;486.40;2380.80;;;;;;4989996;28;20019;-62
2023/08/17 02:08:45;;;;;;;58.72;45.63;;;486.40;2380.80;;;;;;4990188;28;20069;-61
2023/08/17 02:11:11;;;;;;;50.45;41.85;;;486.40;2380.80;;;;;;4989800;28;20401;-61
2023/08/17 02:13:37;;;;;;;54.72;44.92;;;486.40;2380.80;;;;;;4990184;28;20089;-64
2023/08/17 02:16:06;;;;;;;55.35;45.92;;;486.40;2380.80;;;;;;4990054;28;20077;-61
2023/08/17 02:18:33;;;;;;;51.10;43.80;;;486.40;2380.80;;;;;;4989720;28;20030;-61
2023/08/17 02:20:59;;;;;;;57.35;44.17;;;486.40;2380.80;;;;;;4989757;28;20045;-62
2023/08/17 02:23:25;;;;;;;51.30;43.17;;;461.70;2380.80;;;;;;4989803;28;20476;-61
2023/08/17 02:25:50;;;;;;;50.85;42.65;;;461.70;2380.80;;;;;;4989868;28;20110;-62
2023/08/17 02:28:16;;;;;;;56.95;42.15;;;461.70;2380.80;;;;;;4990956;28;20472;-62
2023/08/17 02:30:43;;;;;;;47.30;40.45;;;461.70;2380.80;;;;;;4990929;28;20086;-62
2023/08/17 02:33:09;;;;;;;50.60;40.42;;;461.70;2380.80;;;;;;4991835;28;20085;-62
2023/08/17 02:35:35;;;;;;;44.28;38.40;;;486.40;2380.80;;;;;;4991220;28;20381;-62
2023/08/17 02:38:00;;;;;;;49.97;41.72;;;486.50;2304.00;;;;;;4991217;28;20026;-63
2023/08/17 02:40:26;;;;;;;48.72;41.50;;;486.50;2380.80;;;;;;4989581;28;20027;-62
2023/08/17 02:42:52;;;;;;;49.92;40.60;;;486.50;2380.80;;;;;;4989835;28;20038;-62
2023/08/17 02:45:17;;;;;;;50.55;41.28;;;486.50;2380.80;;;;;;4989543;28;20030;-63
2023/08/17 02:47:43;;;;;;;54.92;43.63;;;486.50;2380.80;;;;;;4989706;28;20018;-63
2023/08/17 02:50:10;;;;;;;51.88;42.05;;;486.60;2380.80;;;;;;4984291;28;20449;-63
2023/08/17 02:52:35;;;;;;;49.97;40.08;;;486.60;2380.80;;;;;;4986288;28;20053;-63
2023/08/17 02:55:01;;;;;;;57.67;41.53;;;486.70;2380.80;;;;;;4993310;28;20481;-63
2023/08/17 02:57:27;;;;;;;51.45;42.05;;;486.70;2380.80;;;;;;4993663;28;20057;-62
2023/08/17 02:59:52;;;;;;;51.38;42.00;;;486.70;2380.80;;;;;;4993359;28;20022;-63
2023/08/17 03:02:18;;;;;;;51.63;42.65;;;486.70;2380.80;;;;;;4993601;28;20048;-63
2023/08/17 03:04:44;;;;;;;50.65;42.10;;;486.60;2380.80;;;;;;4959919;28;20049;-63
2023/08/17 03:07:09;;;;;;;48.70;41.10;;;486.60;2380.80;;;;;;4993665;28;20030;-62
2023/08/17 03:09:35;;;;;;;52.85;41.67;;;486.70;2380.80;;;;;;4993497;28;20041;-63
2023/08/17 03:12:01;;;;;;;46.67;40.25;;;486.60;2380.80;;;;;;4993118;28;20030;-64
2023/08/17 03:14:26;;;;;;;48.40;40.67;;;486.60;2380.80;;;;;;4993275;28;20029;-63
2023/08/17 03:16:52;;;;;;;47.53;39.78;;;486.70;2380.80;;;;;;4993151;28;20049;-62
2023/08/17 03:19:18;;;;;;;47.33;39.35;;;486.60;2380.80;;;;;;4993643;28;20015;-63
2023/08/17 03:21:44;;;;;;;48.67;40.45;;;486.60;2380.80;;;;;;4993327;28;20112;-63
2023/08/17 03:24:10;;;;;;;52.35;38.88;;;486.60;2380.80;;;;;;4993177;28;20415;-63
2023/08/17 03:26:35;;;;;;;51.30;42.60;;;486.50;2380.80;;;;;;4993224;28;20030;-63
2023/08/17 03:29:01;;;;;;;49.80;39.00;;;486.50;2380.80;;;;;;4993030;28;20018;-63
2023/08/17 03:31:27;;;;;;;47.60;40.00;;;486.50;2380.80;;;;;;4993141;28;20034;-63
2023/08/17 03:33:52;;;;;;;49.22;39.75;;;486.50;2380.80;;;;;;4974726;28;20062;-63
2023/08/17 03:36:18;;;;;;;50.97;42.45;;;486.50;2380.80;;;;;;4993067;28;20038;-64
2023/08/17 03:38:44;;;;;;;52.13;42.03;;;486.50;2380.80;;;;;;4992509;28;20536;-63
2023/08/17 03:41:10;;;;;;;53.25;41.75;;;486.50;2380.80;;;;;;4992930;28;20544;-63
2023/08/17 03:43:36;;;;;;;48.25;38.50;;;486.60;2380.80;;;;;;4993165;28;20113;-63
2023/08/17 03:46:03;;;;;;;42.22;36.63;;;486.60;2380.80;;;;;;4992762;28;20113;-64
2023/08/17 03:48:29;;;;;;;47.80;37.88;;;486.50;2380.80;;;;;;4992718;28;20101;-63
2023/08/17 03:50:55;;;;;;;49.70;41.00;;;486.60;2380.80;;;;;;4992761;28;20118;-64
2023/08/17 03:53:21;;;;;;;50.42;41.53;;;486.60;2380.80;;;;;;4992444;28;20046;-64
2023/08/17 03:55:50;;;;;;;44.78;39.40;;;486.60;2380.80;;;;;;4992544;28;20026;-64
2023/08/17 03:58:17;;;;;;;47.28;39.85;;;486.60;2380.80;;;;;;4992910;28;20022;-62
2023/08/17 04:00:50;;;;;;;46.38;38.42;;;486.60;2380.80;;;;;;4992382;28;20029;-61
2023/08/17 04:03:16;;;;;;;48.47;39.22;;;486.70;2380.80;;;;;;4991884;28;20101;-62
2023/08/17 04:05:42;;;;;;;45.60;39.03;;;486.80;2380.80;;;;;;4992383;28;20041;-62
2023/08/17 04:08:08;;;;;;;46.00;37.75;;;486.80;2380.80;;;;;;4992336;28;20030;-62
2023/08/17 04:10:34;;;;;;;43.25;37.10;;;486.80;2380.80;;;;;;4991894;28;20477;-62
2023/08/17 04:13:00;;;;;;;43.28;35.78;;;486.90;2380.80;;;;;;4992143;28;20082;-61
2023/08/17 04:15:26;;;;;;;42.65;35.78;;;486.90;2380.80;;;;;;4992519;28;20054;-62
2023/08/17 04:17:51;;;;;;;41.75;36.25;;;487.00;2380.80;;;;;;4991785;28;20058;-63
2023/08/17 04:20:18;;;;;;;41.13;35.50;;;487.10;2380.80;;;;;;4992377;28;20117;-62
2023/08/17 04:22:44;;;;;;;43.00;36.95;;;487.10;2380.80;;;;;;4991508;28;20105;-62
2023/08/17 04:25:10;;;;;;;41.35;35.33;;;487.10;2380.80;;;;;;4982323;28;20577;-62
2023/08/17 04:27:36;;;;;;;38.78;34.40;;;487.10;2380.80;;;;;;4976803;28;20030;-62
2023/08/17 04:30:02;;;;;;;45.45;38.05;;;487.20;2380.80;;;;;;4991903;28;20049;-62
2023/08/17 04:32:28;;;;;;;43.45;37.05;;;487.30;2380.80;;;;;;4991921;28;20023;-63
2023/08/17 04:34:53;;;;;;;47.63;35.80;;;487.30;2380.80;;;;;;4989858;28;20144;-62
2023/08/17 04:37:19;;;;;;;42.88;35.55;;;487.30;2380.80;;;;;;4991804;28;20038;-63
2023/08/17 04:39:47;;;;;;;45.13;38.33;;;487.30;2380.80;;;;;;4991551;28;20026;-62
2023/08/17 04:42:13;;;;;;;45.75;38.00;;;512.10;2380.80;;;;;;4991879;28;20116;-63
2023/08/17 04:44:39;;;;;;;41.22;35.38;;;512.30;2380.80;;;;;;4991619;28;20073;-62
2023/08/17 04:47:05;;;;;;;47.78;36.03;;;512.20;2380.80;;;;;;4991608;28;20543;-62
2023/08/17 04:49:31;;;;;;;39.47;35.25;;;512.10;2380.80;;;;;;4991442;28;20159;-64
2023/08/17 04:51:56;;;;;;;42.97;35.92;;;512.30;2380.80;;;;;;4991658;28;20109;-62
2023/08/17 04:54:22;;;;;;;40.25;34.38;;;512.40;2380.80;;;;;;4991036;28;20022;-63
2023/08/17 04:56:48;;;;;;;43.70;35.63;;;512.80;2380.80;;;;;;4991587;28;20097;-62
2023/08/17 04:59:13;;;;;;;41.70;36.33;;;537.70;2406.40;;;;;;4991389;28;20022;-62
2023/08/17 05:01:39;;;;;;;41.78;33.92;;;538.00;2406.40;;;;;;4983688;28;20026;-60
2023/08/17 05:04:05;;;;;;;42.05;35.83;;;538.30;2406.40;;;;;;4991046;28;20049;-62
2023/08/17 05:06:31;;;;;;;41.65;35.50;;;563.30;2432.00;;;;;;4991230;28;20073;-62
2023/08/17 05:08:57;;;;;;;36.22;31.85;;;563.30;2432.00;;;;;;4991164;28;20216;-61
2023/08/17 05:11:23;;;;;;;35.88;32.08;;;563.60;2432.00;;;;;;4988953;28;20030;-62
2023/08/17 05:13:49;;;;;;;34.20;30.60;;;589.00;2432.00;;;;;;4990818;28;20444;-62
2023/08/17 05:16:14;;;;;;;36.78;32.75;;;589.40;2432.00;;;;;;4990929;28;20061;-63
2023/08/17 05:18:40;;;;;;;36.70;32.70;;;589.70;2432.00;;;;;;4991031;28;20022;-62
2023/08/17 05:21:06;;;;;;;35.45;30.75;;;614.90;2432.00;;;;;;4990077;28;20468;-62
2023/08/17 05:23:32;;;;;;;36.55;31.75;;;614.70;2432.00;;;;;;4990524;28;20046;-62
2023/08/17 05:25:58;;;;;;;35.33;31.67;;;589.70;2432.00;;;;;;4989912;28;20456;-61
2023/08/17 05:28:24;;;;;;;34.83;30.63;;;589.60;2432.00;;;;;;4990826;28;20029;-63
2023/08/17 05:30:49;;;;;;;36.47;32.42;;;589.70;2432.00;;;;;;4989975;28;20030;-62
2023/08/17 05:33:15;;;;;;;35.20;31.52;;;614.40;2432.00;;;;;;4990797;28;20061;-63
2023/08/17 05:35:42;;;;;;;35.95;32.08;;;614.60;2432.00;;;;;;4991015;28;20026;-63
2023/08/17 05:38:09;;;;;;;35.90;32.17;;;614.70;2432.00;;;;;;4990821;28;20039;-62
2023/08/17 05:40:34;;;;;;;33.70;30.20;;;614.70;2432.00;;;;;;4989127;28;20105;-63
2023/08/17 05:43:00;;;;;;;35.80;31.05;;;615.10;2432.00;;;;;;4990634;28;20177;-63
2023/08/17 05:45:26;;;;;;;34.10;30.33;;;640.60;2432.00;;;;;;4990522;28;20048;-63
2023/08/17 05:47:52;;;;;;;31.70;28.48;;;691.80;2432.00;;;;;;4990008;28;20109;-63
2023/08/17 05:50:18;;;;;;;33.70;30.45;;;717.00;2432.00;;;;;;4988606;28;20121;-64
2023/08/17 05:52:43;;;;;;;31.63;28.45;;;742.60;2432.00;;;;;;4990140;28;20596;-63
2023/08/17 05:55:09;;;;;;;31.70;28.48;;;768.80;2304.00;;;;;;4990048;28;20018;-65
2023/08/17 05:57:35;;;;;;;32.83;29.58;;;793.90;2201.60;;;;;;4990591;28;20117;-65
2023/08/17 06:00:00;;;;;;;33.30;29.70;;;794.50;2124.80;;;;;;4990127;28;20041;-65
2023/08/17 06:02:26;;;;;;;31.42;28.40;;;793.70;2176.00;;;;;;4975621;28;20034;-65
2023/08/17 06:04:52;;;;;;;31.83;28.65;;;768.10;2201.60;;;;;;4990166;28;20023;-64
2023/08/17 06:07:17;;;;;;;31.00;28.08;;;794.00;2150.40;;;;;;4990914;28;20057;-64
2023/08/17 06:09:43;;;;;;;32.95;29.73;;;819.40;2073.60;;;;;;4990220;28;20030;-64
2023/08/17 06:12:09;;;;;;;30.60;27.75;;;793.90;2150.40;;;;;;4981541;28;20773;-63
2023/08/17 06:14:34;;;;;;;32.22;29.27;;;768.50;2150.40;;;;;;4985443;28;20022;-64
2023/08/17 06:17:00;;;;;;;31.63;28.73;;;743.30;2227.20;;;;;;4990483;28;20042;-63
2023/08/17 06:19:26;;;;;;;33.15;29.92;;;743.10;2227.20;;;;;;4990289;28;20496;-64
2023/08/17 06:21:52;;;;;;;31.10;28.10;;;742.80;2278.40;;;;;;4990030;28;20551;-64
2023/08/17 06:24:18;;;;;;;30.90;27.70;;;742.90;2252.80;;;;;;4990490;28;20037;-63
2023/08/17 06:26:45;;;;;;;30.85;27.95;;;794.20;2124.80;;;;;;4989828;28;20034;-65
2023/08/17 06:29:11;;;;;;;29.45;26.85;;;845.50;1971.20;;;;;;4989743;28;20361;-62
2023/08/17 06:31:37;;;;;;;30.25;27.35;;;871.30;1868.80;;;;;;4986220;28;20034;-63
2023/08/17 06:34:03;;;;;;;31.08;27.98;;;896.90;1792.00;;;;;;4981752;28;20026;-65
2023/08/17 06:36:33;;;;;;;28.77;26.27;;;922.00;1766.40;;;;;;4971833;28;20062;-65
2023/08/17 06:38:58;;;;;;;28.90;26.30;;;922.50;1715.20;;;;;;4977698;28;20037;-65
2023/08/17 06:41:24;;;;;;;28.08;25.63;;;922.50;1689.60;;;;;;4986106;28;20035;-65
2023/08/17 06:43:51;;;;;;;26.60;24.35;;;973.00;1664.00;;;;;;4971121;28;20087;-62
2023/08/17 06:46:17;;;;;;;26.42;23.92;;;973.20;1638.40;;;;;;4970626;28;20473;-61
2023/08/17 06:48:43;;;;;;;27.58;25.02;;;998.40;1612.80;;;;;;4983090;28;20026;-65
2023/08/17 06:51:09;;;;;;;28.23;25.88;;;998.80;1587.20;;;;;;4970688;28;20034;-66
2023/08/17 06:53:35;;;;;;;29.83;27.33;;;998.50;1587.20;;;;;;4970415;28;20034;-66
2023/08/17 06:56:00;;;;;;;28.98;26.42;;;998.60;1561.60;;;;;;4980410;28;20642;-62
2023/08/17 06:58:26;;;;;;;27.63;25.20;;;973.70;1561.60;;;;;;4979172;28;20022;-65
2023/08/17 07:00:52;;;;;;;27.77;25.30;;;998.80;1561.60;;;;;;4989537;28;20018;-65
2023/08/17 07:03:18;;;;;;;26.70;24.40;;;999.10;1561.60;;;;;;4989792;28;20034;-66
2023/08/17 07:05:44;;;;;;;28.15;25.75;;;1024.70;1484.80;;;;;;4981224;28;20031;-64
2023/08/17 07:08:10;;;;;;;27.02;24.92;;;1024.50;1484.80;;;;;;4972276;28;20033;-67
2023/08/17 07:10:36;;;;;;;25.27;23.17;;;1024.00;1510.40;;;;;;4989589;28;20034;-63
2023/08/17 07:13:04;;;;;;;24.40;22.27;;;947.70;1587.20;;;;;;4989272;28;20112;-63
2023/08/17 07:15:30;;;;;;;23.48;21.50;;;896.90;1664.00;;;;;;4989819;28;20054;-64
2023/08/17 07:17:56;;;;;;;24.63;22.30;;;922.00;1689.60;;;;;;4989432;28;20161;-65
2023/08/17 07:20:22;;;;;;;20.73;19.02;;;947.20;1638.40;;;;;;4989354;28;20368;-64
2023/08/17 07:22:48;;;;;;;20.80;19.20;;;998.70;1510.40;;;;;;4989931;28;20113;-62
2023/08/17 07:25:13;;;;;;;20.65;18.85;;;973.60;1536.00;;;;;;4989591;28;20030;-63
2023/08/17 07:27:39;;;;;;;19.00;17.48;;;973.00;1561.60;;;;;;4989379;28;20037;-65
2023/08/17 07:30:05;;;;;;;19.38;17.85;;;972.90;1561.60;;;;;;4989697;28;20085;-65
2023/08/17 07:32:31;;;;;;;17.10;15.80;;;973.60;1536.00;;;;;;4989121;28;20381;-66
2023/08/17 07:34:57;;;;;;;17.75;16.10;;;999.20;1484.80;;;;;;4989654;28;20022;-66
2023/08/17 07:37:23;;;;;;;16.90;15.40;;;1024.40;1459.20;;;;;;4989318;28;20168;-65
2023/08/17 07:39:48;;;;;;;19.42;17.90;;;999.10;1510.40;;;;;;4993139;28;20097;-66
2023/08/17 07:42:14;;;;;;;18.88;17.25;;;998.80;1484.80;;;;;;4992718;28;20034;-67
2023/08/17 07:44:40;;;;;;;17.67;16.27;;;1050.20;1433.60;;;;;;4993249;28;20984;-68
2023/08/17 07:47:06;;;;;;;18.48;17.17;;;1075.70;1382.40;;;;;;4992851;28;20496;-64
2023/08/17 07:49:31;;;;;;;20.52;18.90;;;1101.10;1356.80;;;;;;4992803;28;20019;-65
2023/08/17 07:51:57;;;;;;;22.13;20.27;;;1126.40;1331.20;;;;;;4993162;28;20045;-66
2023/08/17 07:54:23;;;;;;;21.88;20.17;;;1101.40;1331.20;;;;;;4992931;28;20388;-66
2023/08/17 07:56:48;;;;;;;19.83;18.27;;;1126.90;1280.00;;;;;;4992755;28;20042;-66
2023/08/17 07:59:14;;;;;;;19.80;18.38;;;1126.40;1331.20;;;;;;4993096;28;20022;-67
2023/08/17 08:01:40;;;;;;;20.08;18.48;;;1126.70;1305.60;;;;;;4980234;28;20532;-69
2023/08/17 08:04:06;;;;;;;20.85;19.23;;;1126.90;1305.60;;;;;;4993050;28;20042;-64
2023/08/17 08:06:32;;;;;;;20.63;18.85;;;1101.50;1305.60;;;;;;4992842;28;20373;-65
2023/08/17 08:08:58;;;;;;;20.63;18.80;;;1101.60;1331.20;;;;;;4992552;28;20484;-64
2023/08/17 08:11:24;;;;;;;22.38;20.58;;;1101.30;1331.20;;;;;;4992813;28;20452;-65
2023/08/17 08:13:50;;;;;;;22.63;20.98;;;1101.20;1331.20;;;;;;4992348;28;20046;-63
2023/08/17 08:16:16;;;;;;;22.27;20.63;;;1126.70;1305.60;;;;;;4992776;28;20084;-62
2023/08/17 08:18:41;;;;;;;21.92;20.27;;;1152.20;1254.40;;;;;;4992438;28;20101;-68
2023/08/17 08:21:07;;;;;;;23.55;21.88;;;1152.50;1254.40;;;;;;4992719;28;20029;-67
2023/08/17 08:23:33;;;;;;;24.08;22.02;;;1126.70;1305.60;;;;;;4992106;28;20485;-63
2023/08/17 08:25:58;;;;;;;23.52;21.83;;;1126.70;1331.20;;;;;;4992421;28;20109;-63
2023/08/17 08:28:25;;;;;;;25.38;23.48;;;1126.80;1305.60;;;;;;4991910;28;20373;-66
2023/08/17 08:30:51;;;;;;;24.67;22.73;;;1152.40;1254.40;;;;;;4992164;28;20503;-64
2023/08/17 08:33:17;;;;;;;24.02;22.23;;;1152.20;1254.40;;;;;;4992117;28;20033;-65
2023/08/17 08:35:43;;;;;;;26.35;24.20;;;1152.60;1254.40;;;;;;4992038;28;20026;-66
2023/08/17 08:38:08;;;;;;;23.98;21.98;;;1127.10;1280.00;;;;;;4991973;28;20065;-65
2023/08/17 08:40:38;;;;;;;25.85;23.83;;;1075.80;1356.80;;;;;;4991824;28;20022;-66
2023/08/17 08:43:04;;;;;;;28.02;25.17;;;1075.50;1356.80;;;;;;4991433;28;20053;-65
2023/08/17 08:45:30;;;;;;;24.73;22.50;;;999.00;1459.20;;;;;;4991934;28;20022;-66
2023/08/17 08:47:59;;;;;;;24.98;22.77;;;973.70;1484.80;;;;;;4991647;28;20105;-63
2023/08/17 08:50:31;;;;;;;27.30;24.98;;;922.40;1561.60;;;;;;4991458;28;20019;-64
2023/08/17 08:53:02;;;;;;;27.25;24.95;;;921.60;1638.40;;;;;;4991972;28;20384;-64
2023/08/17 08:55:32;;;;;;;27.52;25.08;;;870.60;1740.80;;;;;;4991776;28;20030;-64
2023/08/17 08:57:59;;;;;;;27.33;24.92;;;844.90;1792.00;;;;;;4991349;28;20042;-64
2023/08/17 09:00:25;;;;;;;28.65;25.98;;;794.50;1868.80;;;;;;4991630;28;20026;-64
2023/08/17 09:02:52;;;;;;;30.42;27.58;;;819.20;1868.80;;;;;;4991035;28;20054;-64
2023/08/17 09:05:19;;;;;;;28.42;26.02;;;794.00;1894.40;;;;;;4991755;28;20096;-66
2023/08/17 09:07:48;;;;;;;26.63;24.20;;;794.20;1894.40;;;;;;4991408;28;20065;-65
2023/08/17 09:10:16;;;;;;;27.33;24.80;;;794.30;1894.40;;;;;;4991226;28;20023;-64
2023/08/17 09:12:42;;;;;;;27.60;25.30;;;819.40;1843.20;;;;;;4991097;28;20058;-65
2023/08/17 09:15:08;;;;;;;26.45;24.10;;;794.20;1894.40;;;;;;4991270;28;20033;-64
2023/08/17 09:17:36;;;;;;;26.65;24.38;;;794.00;1920.00;;;;;;4991253;28;20060;-65
2023/08/17 09:20:03;;;;;;;27.45;25.05;;;819.70;1868.80;;;;;;4991165;28;20093;-63
2023/08/17 09:22:43;;;;;;;25.10;22.90;;;820.10;1843.20;;;;;;4991158;28;20037;-62
2023/08/17 09:25:10;;;;;;;24.20;22.02;;;844.90;1843.20;;;;;;4991270;28;20030;-61
2023/08/17 09:27:37;;;;;;;24.17;22.02;;;844.80;1868.80;;;;;;4990982;28;20500;-61
2023/08/17 09:30:05;;;;;;;25.85;23.48;;;845.40;1817.60;;;;;;4990891;28;20026;-64
2023/08/17 09:32:32;;;;;;;27.40;24.98;;;845.70;1766.40;;;;;;4977074;28;20057;-63
2023/08/17 09:35:05;;;;;;;26.90;24.50;;;845.20;1817.60;;;;;;4990253;28;20101;-63
2023/08/17 09:37:31;;;;;;;27.30;24.58;;;820.10;1817.60;;;;;;4990320;28;20038;-63
2023/08/17 09:39:57;;;;;;;26.40;23.88;;;845.70;1792.00;;;;;;4990213;28;20037;-64
2023/08/17 09:42:25;;;;;;;27.23;24.92;;;870.40;1792.00;;;;;;4990396;28;20354;-63
2023/08/17 09:44:51;;;;;;;25.45;23.27;;;870.40;1766.40;;;;;;4990127;28;20058;-61
2023/08/17 09:47:18;;;;;;;24.95;22.55;;;820.10;1792.00;;;;;;4990303;28;20584;-64
2023/08/17 09:49:54;;;;;;;26.95;24.48;;;819.30;1868.80;;;;;;4990382;28;20018;-59
2023/08/17 09:52:23;;;;;;;26.55;23.75;;;819.80;1817.60;;;;;;4990438;28;20050;-62
2023/08/17 09:54:52;;;;;;;25.67;23.30;;;819.60;1843.20;;;;;;4990315;28;20014;-64
2023/08/17 09:57:17;;;;;;;24.80;22.58;;;845.20;1817.60;;;;;;4990726;28;20044;-63
2023/08/17 09:59:43;;;;;;;24.70;22.58;;;844.90;1843.20;;;;;;4990069;28;20451;-63
2023/08/17 10:02:21;;;;;;;25.70;23.15;;;820.00;1843.20;;;;;;4989980;28;20113;-62
2023/08/17 10:04:52;;;;;;;24.27;22.15;;;819.80;1817.60;;;;;;4990332;28;20036;-61
2023/08/17 10:07:24;;;;;;;24.48;22.15;;;819.60;1843.20;;;;;;4990269;28;20432;-61
2023/08/17 10:10:00;;;;;;;20.50;18.42;;;794.50;1920.00;;;;;;4978317;28;20031;-62
2023/08/17 10:12:28;;;;;;;21.55;19.02;;;793.70;1945.60;;;;;;4990236;28;20043;-63
2023/08/17 10:15:07;;;;;;;17.08;15.65;;;794.00;1945.60;;;;;;4990061;28;20030;-61
2023/08/17 10:17:41;;;;;;;20.20;17.95;;;768.40;1971.20;;;;;;4989230;28;20122;-65
2023/08/17 10:20:08;;;;;;;19.48;17.60;;;743.30;2022.40;;;;;;4990163;28;20018;-63
2023/08/17 10:22:48;;;;;;;18.67;16.98;;;768.20;1996.80;;;;;;4989194;28;20062;-60
2023/08/17 10:25:16;;;;;;;21.77;19.15;;;768.50;1996.80;;;;;;4989601;28;20027;-60
2023/08/17 10:27:42;;;;;;;20.02;17.90;;;743.30;2022.40;;;;;;4989882;28;20062;-62
2023/08/17 10:30:10;;;;;;;19.30;17.40;;;768.40;1996.80;;;;;;4989825;28;20042;-62
2023/08/17 10:32:36;;;;;;;21.60;18.25;;;768.80;1971.20;;;;;;4989857;28;20030;-63
2023/08/17 10:35:03;;;;;;;20.15;17.92;;;793.70;1971.20;;;;;;4989966;28;20117;-62
2023/08/17 10:37:30;;;;;;;17.70;16.15;;;794.50;1920.00;;;;;;4990212;28;20061;-61
2023/08/17 10:39:56;;;;;;;18.52;16.85;;;794.50;1920.00;;;;;;4990474;28;20057;-63
2023/08/17 10:42:32;;;;;;;17.65;15.95;;;793.80;1996.80;;;;;;4990680;28;20058;-62
2023/08/17 10:44:57;;;;;;;23.15;20.48;;;794.20;1971.20;;;;;;4990421;28;20041;-62
2023/08/17 10:47:24;;;;;;;21.73;19.58;;;768.70;1996.80;;;;;;4981938;28;20113;-62
2023/08/17 10:50:06;;;;;;;20.63;18.63;;;768.60;2022.40;;;;;;4991201;28;20065;-63
2023/08/17 10:52:34;;;;;;;20.80;18.77;;;768.90;1996.80;;;;;;4990011;28;20060;-63
2023/08/17 10:55:07;;;;;;;21.05;19.08;;;768.40;1996.80;;;;;;4984785;28;20061;-62
2023/08/17 10:57:33;;;;;;;20.08;18.20;;;768.40;2022.40;;;;;;4982846;28;20399;-63
2023/08/17 11:00:13;;;;;;;20.88;18.80;;;768.70;1996.80;;;;;;4989690;28;20015;-61
2023/08/17 11:02:40;;;;;;;22.10;20.05;;;794.00;1971.20;;;;;;4989567;28;20026;-64
2023/08/17 11:05:07;;;;;;;23.23;21.30;;;793.90;2022.40;;;;;;4989491;28;20023;-63
2023/08/17 11:07:43;;;;;;;23.25;21.13;;;768.90;1996.80;;;;;;4989347;28;20037;-65
2023/08/17 11:10:20;;;;;;;21.33;19.42;;;794.30;1996.80;;;;;;4989478;28;20038;-63
2023/08/17 11:12:46;;;;;;;21.77;19.88;;;819.30;1945.60;;;;;;4991947;28;20130;-63
2023/08/17 11:15:12;;;;;;;20.42;18.65;;;819.80;1868.80;;;;;;4993242;28;20102;-62
2023/08/17 11:17:38;;;;;;;22.20;20.35;;;819.80;1868.80;;;;;;4993763;28;20072;-64
2023/08/17 11:20:04;;;;;;;20.83;19.02;;;819.90;1894.40;;;;;;4993402;28;20022;-63
2023/08/17 11:22:31;;;;;;;23.55;21.33;;;819.60;1868.80;;;;;;4992955;28;20046;-63
2023/08/17 11:24:58;;;;;;;24.33;22.10;;;794.30;1920.00;;;;;;4982275;28;20057;-62
2023/08/17 11:27:25;;;;;;;23.38;21.27;;;794.00;1971.20;;;;;;4991928;28;20094;-63
2023/08/17 11:29:51;;;;;;;23.52;21.33;;;794.30;1945.60;;;;;;4993502;28;20057;-62
2023/08/17 11:32:17;;;;;;;25.00;22.73;;;794.00;1971.20;;;;;;4993243;28;20350;-62
2023/08/17 11:34:43;;;;;;;26.38;24.00;;;794.00;1996.80;;;;;;4993178;28;20081;-62
2023/08/17 11:37:11;;;;;;;26.35;24.17;;;794.10;1971.20;;;;;;4992955;28;20377;-63
2023/08/17 11:39:37;;;;;;;26.13;23.55;;;794.30;1996.80;;;;;;4992983;28;20038;-63
2023/08/17 11:42:04;;;;;;;25.20;22.88;;;819.20;1971.20;;;;;;4993033;28;20469;-63
2023/08/17 11:44:30;;;;;;;26.38;24.17;;;794.50;1945.60;;;;;;4993109;28;20072;-62
2023/08/17 11:46:55;;;;;;;27.23;24.90;;;819.70;1920.00;;;;;;4993096;28;20054;-62
2023/08/17 11:49:23;;;;;;;26.52;24.13;;;819.60;1945.60;;;;;;4993087;28;20090;-64
2023/08/17 11:51:51;;;;;;;26.55;24.05;;;819.80;1920.00;;;;;;4992910;28;20030;-64
2023/08/17 11:54:16;;;;;;;26.83;24.38;;;819.50;1945.60;;;;;;4992966;28;20101;-64
2023/08/17 11:56:42;;;;;;;24.40;22.38;;;819.60;1920.00;;;;;;4992390;28;20122;-63